Time;durP1;ratioP1;P1;durP2;ratioP2;P2;SDS_P1;SDS_P2;PMS_P1;PMS_P2;Temp;Humidity;BMP_temperature;BMP_pressure;BME280_temperature;BME280_humidity;BME280_pressure;Samples;Min_cycle;Max_cycle;Signal;HPM_P1;HPM_P2
2023/07/11 00:03:38;;;;;;;6.13;5.63;;;20.00;99.90;;;20.96;65.40;98202.44;10343208;28;20361;-67
2023/07/11 00:08:42;;;;;;;6.50;5.90;;;20.10;99.90;;;20.90;64.99;98200.56;10350570;28;20595;-67
2023/07/11 00:13:49;;;;;;;6.47;5.88;;;20.00;99.90;;;20.80;64.77;98189.94;10354393;28;20226;-67
2023/07/11 00:18:54;;;;;;;6.97;6.38;;;19.90;99.90;;;20.69;65.61;98195.78;10353327;28;20594;-67
2023/07/11 00:24:03;;;;;;;5.82;5.32;;;19.80;99.90;;;20.69;65.77;98200.13;10356336;28;20236;-67
2023/07/11 00:29:17;;;;;;;5.93;5.43;;;19.80;99.90;;;20.67;66.15;98187.09;10363945;28;20289;-67
2023/07/11 00:34:20;;;;;;;6.85;6.15;;;19.70;99.90;;;20.72;66.41;98195.00;10353547;28;20228;-67
2023/07/11 00:39:24;;;;;;;6.90;6.32;;;19.80;99.90;;;20.57;66.92;98185.09;10355830;28;20606;-68
2023/07/11 00:44:29;;;;;;;6.25;5.65;;;19.70;99.90;;;20.55;66.76;98184.22;10351572;28;20646;-67
2023/07/11 00:49:33;;;;;;;6.22;5.63;;;19.60;99.90;;;20.42;68.00;98184.72;10350971;28;20233;-68
2023/07/11 00:54:38;;;;;;;7.43;6.65;;;19.50;99.90;;;20.42;67.87;98177.81;10361947;28;20252;-68
2023/07/11 00:59:43;;;;;;;6.72;6.10;;;19.50;99.90;;;20.29;68.11;98172.28;10362172;28;20226;-68
2023/07/11 01:04:47;;;;;;;6.18;5.68;;;19.40;99.90;;;20.25;68.17;98171.34;10361792;28;20230;-67
2023/07/11 01:09:50;;;;;;;6.18;5.57;;;19.30;99.90;;;20.27;68.14;98168.81;10363958;28;20287;-67
2023/07/11 01:14:54;;;;;;;6.57;5.95;;;19.30;99.90;;;20.21;68.46;98159.16;10357929;28;20245;-67
2023/07/11 01:20:00;;;;;;;6.72;6.22;;;19.30;99.90;;;20.05;68.93;98163.06;10359444;28;20280;-69
2023/07/11 01:25:10;;;;;;;7.05;6.45;;;19.20;99.90;;;19.98;69.43;98156.00;10349987;28;20234;-67
2023/07/11 01:30:17;;;;;;;7.18;6.47;;;19.10;99.90;;;19.95;70.01;98154.19;10344428;28;20268;-67
2023/07/11 01:35:20;;;;;;;7.05;6.32;;;19.00;99.90;;;20.00;70.26;98154.28;10342612;28;20227;-67
2023/07/11 01:40:25;;;;;;;6.75;6.20;;;19.10;99.90;;;19.89;71.00;98145.41;10360828;28;20653;-67
2023/07/11 01:45:28;;;;;;;7.38;6.68;;;18.90;99.90;;;19.83;70.49;98150.41;10357270;28;20551;-69
2023/07/11 01:50:32;;;;;;;7.15;6.45;;;18.80;99.90;;;19.74;71.42;98133.81;10358308;28;20237;-67
2023/07/11 01:55:37;;;;;;;7.30;6.60;;;18.80;99.90;;;19.76;70.57;98139.00;10362457;28;20609;-67
2023/07/11 02:00:40;;;;;;;6.55;6.03;;;18.80;99.90;;;19.66;70.49;98132.72;10354915;28;20227;-68
2023/07/11 02:05:43;;;;;;;7.35;6.30;;;18.70;99.90;;;19.58;70.50;98131.63;10362533;28;20736;-67
2023/07/11 02:10:48;;;;;;;6.82;6.22;;;18.60;99.90;;;19.38;70.79;98120.72;10354640;28;20236;-67
2023/07/11 02:15:51;;;;;;;6.45;5.95;;;18.50;99.90;;;19.25;72.11;98121.22;10357671;28;20248;-67
2023/07/11 02:20:58;;;;;;;7.15;6.45;;;18.40;99.90;;;19.26;72.03;98112.63;10364108;28;20230;-68
2023/07/11 02:26:02;;;;;;;6.50;5.90;;;18.40;99.90;;;19.22;72.01;98118.53;10361538;28;20242;-67
2023/07/11 02:31:05;;;;;;;7.15;6.55;;;18.40;99.90;;;19.27;71.46;98112.66;10347374;28;20227;-67
2023/07/11 02:36:08;;;;;;;7.97;7.28;;;18.40;99.90;;;19.13;72.80;98124.34;10355013;28;20254;-67
2023/07/11 02:41:13;;;;;;;7.20;6.60;;;18.30;99.90;;;19.09;73.87;98112.16;10359058;28;20235;-67
2023/07/11 02:46:17;;;;;;;8.10;7.03;;;18.20;99.90;;;19.10;73.53;98109.59;10356266;28;20237;-67
2023/07/11 02:51:20;;;;;;;7.82;7.05;;;18.30;99.90;;;19.17;73.91;98108.03;10359824;28;20285;-67
2023/07/11 02:56:25;;;;;;;6.80;6.20;;;18.30;99.90;;;19.13;74.04;98108.81;10358379;28;20244;-67
2023/07/11 03:01:31;;;;;;;7.65;6.95;;;18.20;99.90;;;19.01;74.26;98109.34;10352764;28;20244;-67
2023/07/11 03:06:34;;;;;;;7.35;6.65;;;18.20;99.90;;;19.05;73.89;98099.94;10359142;28;20242;-67
2023/07/11 03:11:39;;;;;;;8.02;7.22;;;18.10;99.90;;;19.05;73.66;98095.63;10354035;28;20223;-67
2023/07/11 03:16:42;;;;;;;7.35;6.72;;;18.10;99.90;;;19.02;74.07;98089.50;10355777;28;20230;-67
2023/07/11 03:21:46;;;;;;;7.70;7.03;;;18.10;99.90;;;18.89;74.79;98090.88;10353461;28;20226;-67
2023/07/11 03:26:50;;;;;;;8.43;7.72;;;18.10;99.90;;;18.82;75.25;98087.22;10352804;28;20230;-67
2023/07/11 03:31:53;;;;;;;8.02;7.22;;;18.10;99.90;;;18.83;75.36;98086.41;10351286;28;20235;-67
2023/07/11 03:36:56;;;;;;;8.43;7.65;;;18.00;99.90;;;18.89;75.47;98078.81;10358175;28;20848;-67
2023/07/11 03:42:01;;;;;;;7.55;6.95;;;18.00;99.90;;;18.88;75.45;98066.66;10352764;28;20502;-67
2023/07/11 03:47:05;;;;;;;7.68;6.95;;;18.00;99.90;;;18.81;75.64;98077.72;10352079;28;20230;-67
2023/07/11 03:52:08;;;;;;;7.55;6.88;;;17.90;99.90;;;18.87;75.73;98074.41;10359510;28;20260;-67
2023/07/11 03:57:13;;;;;;;8.70;7.85;;;18.00;99.90;;;18.67;76.57;98074.69;10352937;28;20237;-67
2023/07/11 04:02:17;;;;;;;8.13;7.53;;;17.90;99.90;;;18.75;76.35;98074.06;10348299;28;20233;-67
2023/07/11 04:07:20;;;;;;;9.23;8.32;;;17.90;99.90;;;18.64;76.73;98060.78;10350099;28;20233;-67
2023/07/11 04:12:24;;;;;;;8.55;7.75;;;17.80;99.90;;;18.77;76.41;98062.03;10358881;28;20312;-67
2023/07/11 04:17:28;;;;;;;8.07;7.38;;;18.00;99.90;;;18.82;76.29;98061.31;10355226;28;20230;-67
2023/07/11 04:22:31;;;;;;;8.32;7.53;;;17.90;99.90;;;18.65;76.52;98055.63;10355413;28;20653;-67
2023/07/11 04:27:36;;;;;;;7.82;7.13;;;17.80;99.90;;;18.83;76.12;98059.63;10361992;28;20222;-67
2023/07/11 04:32:39;;;;;;;7.63;6.93;;;18.00;99.90;;;19.08;75.37;98053.38;10360332;28;20225;-67
2023/07/11 04:37:44;;;;;;;8.32;7.53;;;18.30;99.90;;;19.12;75.13;98056.09;10363892;28;20236;-67
2023/07/11 04:42:48;;;;;;;8.27;7.57;;;18.40;99.90;;;19.42;74.26;98051.66;10354211;28;20222;-67
2023/07/11 04:47:51;;;;;;;8.68;7.97;;;18.60;99.90;;;19.59;73.48;98048.66;10362368;28;20780;-67
2023/07/11 04:52:55;;;;;;;8.30;7.60;;;18.80;99.90;;;19.93;72.62;98046.03;10362994;28;20226;-67
2023/07/11 04:57:59;;;;;;;8.82;8.05;;;19.10;99.90;;;20.05;71.82;98051.50;10355014;28;20730;-66
2023/07/11 05:03:03;;;;;;;9.63;8.73;;;19.30;99.90;;;20.32;70.48;98052.97;10355793;28;20863;-67
2023/07/11 05:08:06;;;;;;;9.00;8.10;;;19.50;99.90;;;21.29;66.45;98042.75;10359648;28;20576;-67
2023/07/11 05:13:11;;;;;;;8.00;7.30;;;20.60;99.90;;;22.52;61.83;98047.28;10358433;28;20608;-67
2023/07/11 05:18:16;;;;;;;8.68;7.88;;;21.80;99.90;;;23.54;57.48;98037.09;10359441;28;20265;-67
2023/07/11 05:23:19;;;;;;;9.73;8.88;;;22.50;98.30;;;23.77;55.81;98034.69;10365212;28;20241;-68
2023/07/11 05:28:24;;;;;;;9.55;8.65;;;22.50;97.80;;;24.24;54.70;98027.19;10373022;28;20769;-67
2023/07/11 05:33:28;;;;;;;8.90;8.00;;;22.80;97.20;;;24.59;53.25;98023.91;10370266;28;20321;-67
2023/07/11 05:38:32;;;;;;;8.68;7.80;;;23.10;96.00;;;24.48;53.18;98022.97;10370334;28;20601;-68
2023/07/11 05:43:36;;;;;;;7.60;6.97;;;23.20;95.50;;;24.72;52.52;98012.63;10366719;28;20222;-68
2023/07/11 05:48:40;;;;;;;8.00;7.10;;;23.40;94.80;;;25.19;50.86;98011.00;10367211;28;20237;-68
2023/07/11 05:53:43;;;;;;;7.57;6.95;;;23.60;93.90;;;25.83;48.38;98004.94;10360544;28;20306;-68
2023/07/11 05:58:52;;;;;;;7.93;7.30;;;24.50;91.40;;;26.28;47.49;98003.94;10356119;28;20337;-66
2023/07/11 06:04:09;;;;;;;7.60;7.00;;;24.60;91.40;;;26.93;45.32;97993.22;10357340;28;20261;-68
2023/07/11 06:09:15;;;;;;;7.43;6.82;;;25.20;89.00;;;27.46;44.30;97996.34;10364601;28;20232;-68
2023/07/11 06:14:22;;;;;;;7.05;6.50;;;25.60;88.40;;;28.27;42.30;97988.59;10359718;28;20222;-68
2023/07/11 06:19:26;;;;;;;7.30;6.60;;;26.20;85.80;;;28.56;41.44;97986.50;10365565;28;20230;-68
2023/07/11 06:24:29;;;;;;;6.72;6.05;;;26.30;84.30;;;28.95;40.46;97985.09;10367214;28;20222;-69
2023/07/11 06:29:34;;;;;;;7.53;6.82;;;26.90;83.30;;;29.15;40.24;97990.97;10359221;28;20376;-68
2023/07/11 06:34:37;;;;;;;8.40;6.78;;;26.80;81.90;;;29.53;38.83;97986.88;10349951;28;20664;-68
2023/07/11 06:39:41;;;;;;;7.00;6.40;;;27.20;80.40;;;29.52;39.70;97987.75;10359587;28;20228;-69
2023/07/11 06:44:45;;;;;;;6.70;6.20;;;27.30;80.80;;;30.03;38.67;97984.25;10358981;28;20222;-69
2023/07/11 06:49:49;;;;;;;7.05;6.32;;;28.00;78.40;;;30.68;37.26;97978.56;10408590;22;20606;-68
2023/07/11 06:54:52;;;;;;;7.15;6.30;;;28.50;76.80;;;31.34;35.93;97971.81;10397685;28;20225;-68
2023/07/11 06:59:57;;;;;;;6.25;5.65;;;29.30;74.70;;;32.02;35.61;97984.19;10387577;28;20320;-68
2023/07/11 07:05:00;;;;;;;6.40;5.90;;;29.70;74.20;;;32.40;34.50;97974.34;10386804;28;20732;-68
2023/07/11 07:10:04;;;;;;;6.32;5.78;;;30.00;73.50;;;32.88;33.32;97963.19;10377037;28;20600;-70
2023/07/11 07:15:10;;;;;;;6.82;6.22;;;30.40;71.60;;;32.89;34.17;97952.56;10386084;28;20317;-69
2023/07/11 07:20:16;;;;;;;6.57;6.03;;;30.70;71.10;;;33.48;32.25;97962.19;10379998;28;20236;-68
2023/07/11 07:25:19;;;;;;;5.82;5.43;;;31.30;68.90;;;34.24;31.21;97944.56;10383421;28;20233;-68
2023/07/11 07:30:28;;;;;;;5.95;5.45;;;32.20;66.60;;;34.10;30.88;97947.72;10385556;28;20241;-69
2023/07/11 07:35:31;;;;;;;6.25;5.65;;;31.90;65.50;;;34.28;31.07;97947.06;10389048;28;20236;-69
2023/07/11 07:40:34;;;;;;;5.70;5.15;;;32.20;65.50;;;35.06;29.96;97931.72;10427321;28;20305;-70
2023/07/11 07:45:39;;;;;;;5.90;5.30;;;33.00;63.10;;;35.14;29.70;97927.81;10428882;28;20225;-69
2023/07/11 07:50:42;;;;;;;5.72;5.22;;;33.30;63.00;;;35.58;28.72;97927.78;10429135;28;20220;-69
2023/07/11 07:55:46;;;;;;;5.57;5.07;;;33.70;60.80;;;36.35;27.70;97916.41;10432678;28;20239;-69
2023/07/11 08:00:53;;;;;;;5.25;4.82;;;34.20;59.40;;;36.91;26.06;97926.19;10434477;28;20217;-70
2023/07/11 08:05:57;;;;;;;5.90;5.25;;;34.60;58.00;;;37.29;24.71;97914.59;10410663;28;20355;-68
2023/07/11 08:11:20;;;;;;;5.38;4.88;;;35.00;57.20;;;37.49;25.30;97911.84;10420124;28;20225;-68
2023/07/11 08:16:25;;;;;;;4.93;4.53;;;35.10;57.30;;;37.87;25.10;97900.97;10429540;28;20307;-68
2023/07/11 08:21:36;;;;;;;4.90;4.40;;;35.30;56.60;;;38.83;23.61;97908.22;10421569;28;20700;-68
2023/07/11 08:26:39;;;;;;;5.03;4.63;;;36.50;55.30;;;38.33;24.68;97887.84;10424915;28;20228;-69
2023/07/11 08:31:44;;;;;;;5.32;4.93;;;36.30;55.40;;;38.49;24.16;97880.75;10420552;28;20237;-70
2023/07/11 08:36:47;;;;;;;5.40;5.00;;;37.00;54.40;;;38.05;24.83;97873.31;10401310;28;20240;-69
2023/07/11 08:41:53;;;;;;;5.93;5.35;;;36.50;55.30;;;37.97;25.12;97872.00;10422488;28;20235;-68
2023/07/11 08:47:04;;;;;;;5.60;5.13;;;36.40;56.10;;;37.84;26.35;97867.28;10413088;28;20843;-68
2023/07/11 08:52:10;;;;;;;6.07;5.45;;;36.50;56.70;;;37.88;26.34;97860.84;10415352;28;20233;-69
2023/07/11 08:57:17;;;;;;;5.75;5.30;;;36.50;56.80;;;37.98;26.45;97857.72;10416263;28;20232;-68
2023/07/11 09:02:34;;;;;;;7.18;6.47;;;36.50;57.40;;;37.93;28.38;97860.59;10407248;28;20228;-68
2023/07/11 09:07:41;;;;;;;6.30;5.70;;;37.30;57.90;;;37.12;28.16;97852.34;10424901;28;20281;-68
2023/07/11 09:12:54;;;;;;;6.43;5.82;;;35.80;59.30;;;37.46;29.40;97837.28;10419815;28;20225;-68
2023/07/11 09:18:22;;;;;;;6.43;5.82;;;36.40;59.50;;;37.85;28.74;97836.13;10424231;28;20325;-68
2023/07/11 09:23:40;;;;;;;6.63;6.13;;;36.70;59.10;;;37.79;29.03;97829.31;10419654;28;20225;-68
2023/07/11 09:28:45;;;;;;;7.97;6.20;;;36.70;59.60;;;37.59;30.28;97824.19;10421287;28;20229;-67
2023/07/11 09:33:54;;;;;;;7.28;6.68;;;36.60;60.30;;;37.18;30.29;97816.50;10416466;28;20581;-67
2023/07/11 09:39:05;;;;;;;6.57;5.97;;;36.30;60.30;;;37.10;30.42;97808.88;10418624;28;20231;-67
2023/07/11 09:44:11;;;;;;;7.22;6.25;;;36.10;61.10;;;36.88;31.06;97802.88;10422812;28;20308;-68
2023/07/11 09:49:23;;;;;;;6.90;6.30;;;36.40;61.00;;;36.94;30.89;97792.78;10425355;28;20228;-67
2023/07/11 09:54:42;;;;;;;7.18;6.47;;;36.40;61.30;;;37.27;29.31;97788.50;10416621;28;20236;-69
2023/07/11 10:00:03;;;;;;;6.97;6.38;;;36.70;59.00;;;37.51;29.32;97784.56;10409004;28;20284;-69
2023/07/11 10:05:25;;;;;;;7.07;6.40;;;36.50;59.10;;;37.61;29.03;97788.47;10414955;28;20259;-67
2023/07/11 10:10:29;;;;;;;6.63;6.13;;;36.80;58.50;;;37.61;29.04;97776.94;10396075;28;20230;-68
2023/07/11 10:15:32;;;;;;;6.90;6.30;;;37.00;58.30;;;37.38;27.69;97775.47;10401243;28;20225;-68
2023/07/11 10:20:36;;;;;;;6.68;6.18;;;36.70;57.30;;;37.43;26.83;97768.06;10413237;28;20222;-68
2023/07/11 10:25:45;;;;;;;6.95;6.30;;;36.80;55.90;;;37.32;28.22;97754.47;10424888;28;20233;-67
2023/07/11 10:30:49;;;;;;;6.53;6.03;;;36.60;56.80;;;37.40;26.32;97760.22;10403898;28;20236;-67
2023/07/11 10:36:03;;;;;;;7.13;6.20;;;36.60;55.20;;;37.22;26.21;97758.53;10414594;28;20701;-68
2023/07/11 10:41:18;;;;;;;6.90;6.30;;;36.40;55.60;;;36.98;27.07;97756.19;10424974;28;20228;-68
2023/07/11 10:46:36;;;;;;;6.93;6.30;;;36.10;55.80;;;36.61;27.43;97744.72;10424309;28;20235;-68
2023/07/11 10:51:51;;;;;;;6.97;6.32;;;35.90;55.30;;;36.24;28.18;97738.50;10404089;28;20225;-67
2023/07/11 10:57:02;;;;;;;7.35;6.75;;;35.50;56.50;;;36.81;27.55;97726.88;10424009;28;20228;-68
2023/07/11 11:02:16;;;;;;;6.75;5.85;;;36.10;56.10;;;37.19;27.01;97728.41;10417865;28;20224;-69
2023/07/11 11:07:28;;;;;;;7.20;6.50;;;36.50;55.50;;;37.34;26.15;97718.72;10420772;28;20736;-68
2023/07/11 11:12:40;;;;;;;7.03;6.32;;;36.40;55.30;;;37.23;27.27;97713.13;10434397;28;20231;-69
2023/07/11 11:17:58;;;;;;;6.63;6.03;;;36.20;56.00;;;36.66;27.79;97709.88;10419605;28;20706;-69
2023/07/11 11:23:27;;;;;;;7.28;6.57;;;35.90;56.30;;;36.52;28.47;97698.09;10429062;28;20224;-68
2023/07/11 11:28:42;;;;;;;6.82;6.22;;;35.50;57.50;;;36.72;28.76;97681.09;10424484;28;20229;-68
2023/07/11 11:33:59;;;;;;;8.02;6.65;;;35.90;58.30;;;36.67;29.52;97676.94;10413935;28;20245;-68
2023/07/11 11:39:23;;;;;;;7.03;6.38;;;35.90;58.40;;;36.76;28.39;97666.66;10425507;28;20217;-69
2023/07/11 11:44:39;;;;;;;8.10;6.55;;;36.10;57.40;;;36.67;29.69;97656.47;10419779;28;20306;-68
2023/07/11 11:49:46;;;;;;;6.88;6.20;;;35.90;58.40;;;36.49;29.29;97654.75;10409401;28;20224;-68
2023/07/11 12:00:40;;;;;;;7.45;6.70;;;35.80;58.10;;;36.39;30.18;97640.16;10476059;27;20771;-68
2023/07/11 12:05:49;;;;;;;6.68;6.07;;;35.40;59.20;;;36.46;30.53;97637.13;10435948;28;20723;-68
2023/07/11 12:11:30;;;;;;;7.80;7.10;;;35.60;59.30;;;36.49;29.71;97631.63;10433653;28;20242;-68
2023/07/11 12:16:35;;;;;;;7.25;6.63;;;35.60;58.80;;;36.53;29.90;97616.38;10436564;28;20362;-69
2023/07/11 12:21:45;;;;;;;7.40;6.47;;;35.50;58.70;;;36.49;29.67;97604.13;10430904;28;20224;-68
2023/07/11 12:26:48;;;;;;;8.77;6.68;;;35.50;58.60;;;36.36;30.72;97598.56;10433064;28;20270;-69
2023/07/11 12:32:30;;;;;;;7.90;7.05;;;35.30;59.70;;;36.33;30.20;97576.56;10436915;28;20228;-68
2023/07/11 12:37:47;;;;;;;7.90;7.20;;;35.40;59.00;;;36.21;30.19;97560.28;10435729;28;20312;-68
2023/07/11 12:42:53;;;;;;;7.88;7.10;;;35.30;59.00;;;36.25;30.10;97553.84;10429307;28;20823;-68
2023/07/11 12:48:07;;;;;;;7.78;7.13;;;35.30;59.30;;;36.35;30.44;97548.06;10432181;23;20763;-67
2023/07/11 12:53:10;;;;;;;8.85;6.88;;;35.50;59.10;;;36.46;29.98;97545.72;10393985;28;20336;-67
2023/07/11 12:58:19;;;;;;;7.57;6.85;;;35.60;59.00;;;36.55;29.46;97545.25;10396745;28;20228;-66
2023/07/11 13:03:29;;;;;;;7.30;6.70;;;35.70;58.10;;;36.70;29.73;97549.75;10367813;28;20879;-67
2023/07/11 13:08:34;;;;;;;7.47;6.70;;;35.90;58.50;;;36.95;29.21;97529.78;10365943;28;20721;-67
2023/07/11 13:13:40;;;;;;;7.55;6.82;;;36.20;57.90;;;37.21;28.36;97544.38;10352617;28;20222;-67
2023/07/11 13:18:48;;;;;;;7.82;7.15;;;36.50;57.40;;;37.22;29.07;97534.56;10342541;28;20316;-67
2023/07/11 13:23:51;;;;;;;7.88;7.15;;;36.50;57.60;;;37.16;28.53;97525.09;10358791;28;20225;-67
2023/07/11 13:29:06;;;;;;;8.15;7.35;;;36.40;56.90;;;36.80;28.65;97517.28;10350758;28;20237;-67
2023/07/11 13:34:15;;;;;;;7.82;7.05;;;36.00;57.70;;;36.69;29.16;97510.75;10360519;28;20257;-67
2023/07/11 13:39:25;;;;;;;9.15;7.18;;;35.90;57.90;;;36.47;29.57;97494.16;10362155;28;20236;-67
2023/07/11 13:44:31;;;;;;;8.32;7.50;;;35.50;59.00;;;36.51;29.68;97487.72;10348471;28;20223;-68
2023/07/11 13:49:41;;;;;;;7.72;7.13;;;35.50;59.00;;;36.59;29.67;97482.88;10361086;28;20226;-67
2023/07/11 13:54:52;;;;;;;7.28;6.75;;;35.50;58.80;;;36.38;30.33;97481.34;10356669;28;20225;-67
2023/07/11 13:59:55;;;;;;;7.82;7.20;;;35.30;59.20;;;36.16;30.04;97482.44;10355752;28;20234;-67
2023/07/11 14:05:23;;;;;;;8.63;7.72;;;35.10;59.20;;;36.28;30.20;97470.28;10348690;28;20225;-68
2023/07/11 14:10:29;;;;;;;7.95;7.07;;;35.20;59.10;;;36.16;30.03;97471.81;10352347;28;20690;-67
2023/07/11 14:15:33;;;;;;;9.20;8.20;;;35.10;59.00;;;36.21;29.87;97477.75;10335988;28;20768;-66
2023/07/11 14:20:39;;;;;;;8.25;7.45;;;35.10;58.80;;;36.38;29.40;97471.53;10322745;28;20246;-67
2023/07/11 14:25:42;;;;;;;8.05;7.05;;;35.40;58.60;;;36.53;29.40;97461.91;10316497;28;20234;-67
2023/07/11 14:30:46;;;;;;;8.25;7.55;;;35.50;58.50;;;36.50;29.58;97457.56;10315148;28;20626;-66
2023/07/11 14:35:50;;;;;;;8.57;7.75;;;35.50;58.50;;;36.42;29.63;97456.25;10309705;28;20233;-67
2023/07/11 14:40:53;;;;;;;7.85;7.18;;;35.40;58.50;;;36.47;29.71;97451.53;10301188;28;20242;-66
2023/07/11 14:45:57;;;;;;;8.23;7.45;;;35.50;58.80;;;36.41;29.54;97443.88;10282876;28;20678;-67
2023/07/11 14:51:05;;;;;;;9.07;7.47;;;35.40;58.30;;;36.55;29.25;97435.19;10297582;28;20230;-67
2023/07/11 14:56:14;;;;;;;8.88;7.97;;;35.50;58.20;;;36.59;28.44;97434.91;10306396;28;20269;-67
2023/07/11 15:01:20;;;;;;;8.45;7.38;;;35.50;57.50;;;36.61;29.48;97432.19;10310495;28;20225;-66
2023/07/11 15:06:25;;;;;;;8.10;7.40;;;35.70;57.80;;;36.54;29.31;97426.31;10307854;28;20247;-67
2023/07/11 15:11:37;;;;;;;7.88;7.15;;;35.50;58.20;;;36.47;29.45;97440.91;10300806;28;20234;-66
2023/07/11 15:16:41;;;;;;;7.82;7.10;;;35.40;58.20;;;36.61;29.51;97443.69;10303536;28;20234;-68
2023/07/11 15:21:49;;;;;;;7.78;7.07;;;35.50;58.20;;;36.65;29.66;97434.56;10290674;28;20285;-68
2023/07/11 15:26:52;;;;;;;7.95;7.25;;;35.60;58.20;;;36.68;28.95;97431.75;10282226;28;20261;-68
2023/07/11 15:31:55;;;;;;;8.27;7.63;;;35.70;57.90;;;36.60;29.04;97419.78;10293519;28;20789;-68
2023/07/11 15:37:00;;;;;;;8.43;7.63;;;35.70;57.80;;;36.99;28.43;97422.88;10291435;28;20226;-67
2023/07/11 15:42:04;;;;;;;9.23;8.32;;;35.90;56.60;;;37.17;27.51;97421.03;10295195;28;20234;-68
2023/07/11 15:47:12;;;;;;;9.38;7.97;;;36.20;55.60;;;37.20;27.31;97404.88;10293563;28;20218;-66
2023/07/11 15:52:21;;;;;;;7.47;6.35;;;36.10;55.50;;;37.15;23.42;97396.25;10301535;28;20770;-67
2023/07/11 15:57:25;;;;;;;7.93;7.22;;;36.20;50.10;;;36.92;25.33;97391.38;10286075;28;20234;-67
2023/07/11 16:02:28;;;;;;;7.72;7.13;;;36.00;53.10;;;36.64;26.61;97384.91;10297842;28;20231;-67
2023/07/11 16:07:32;;;;;;;8.18;7.22;;;35.70;54.70;;;36.61;27.66;97382.44;10305799;28;20222;-67
2023/07/11 16:12:35;;;;;;;8.70;7.80;;;35.70;55.10;;;36.65;27.81;97391.09;10292014;28;20249;-67
2023/07/11 16:17:39;;;;;;;9.45;8.45;;;35.70;55.40;;;36.37;27.22;97391.72;10303869;28;20702;-66
2023/07/11 16:22:44;;;;;;;8.00;7.30;;;35.40;55.30;;;35.95;28.69;97407.25;10307267;28;20227;-67
2023/07/11 16:27:53;;;;;;;8.77;7.47;;;34.90;56.80;;;35.71;29.51;97398.72;10306096;28;20226;-67
2023/07/11 16:32:58;;;;;;;7.95;7.32;;;34.60;57.90;;;35.53;30.42;97405.81;10303388;28;20949;-68
2023/07/11 16:38:03;;;;;;;8.55;7.78;;;34.40;58.60;;;35.24;31.00;97407.28;10315998;28;20230;-67
2023/07/11 16:43:10;;;;;;;8.68;7.85;;;34.20;59.40;;;35.09;31.28;97400.06;10304097;28;20536;-68
2023/07/11 16:48:16;;;;;;;8.25;7.50;;;34.00;60.00;;;34.95;31.83;97404.22;10319553;28;20645;-67
2023/07/11 16:53:23;;;;;;;9.10;8.30;;;33.90;60.40;;;34.87;32.13;97395.75;10319894;28;20226;-66
2023/07/11 16:58:38;;;;;;;8.35;7.65;;;33.80;60.60;;;34.69;32.78;97383.38;10315354;28;20240;-67
2023/07/11 17:03:42;;;;;;;9.02;8.25;;;33.60;61.90;;;34.48;32.67;97388.75;10316393;28;20223;-67
2023/07/11 17:08:46;;;;;;;8.40;7.63;;;33.40;62.20;;;34.37;33.18;97379.53;10314589;28;20317;-67
2023/07/11 17:13:49;;;;;;;8.45;7.75;;;33.30;63.00;;;34.38;33.97;97373.31;10310153;28;20230;-67
2023/07/11 17:18:53;;;;;;;8.63;7.90;;;33.30;63.60;;;34.31;34.31;97359.44;10316728;28;20231;-66
2023/07/11 17:23:57;;;;;;;8.10;7.50;;;33.30;65.00;;;34.18;34.43;97345.88;10320243;28;20369;-67
2023/07/11 17:29:00;;;;;;;8.52;7.78;;;33.10;64.70;;;34.05;34.79;97337.66;10313176;28;20226;-67
2023/07/11 17:34:13;;;;;;;9.13;8.23;;;33.00;66.30;;;33.92;35.35;97320.53;10297944;28;20786;-68
2023/07/11 17:39:20;;;;;;;8.88;8.20;;;32.80;66.60;;;33.75;36.57;97312.47;10296946;28;20227;-67
2023/07/11 17:44:23;;;;;;;8.73;7.95;;;32.60;68.10;;;33.62;36.92;97309.50;10295512;28;20235;-67
2023/07/11 17:49:42;;;;;;;8.23;7.53;;;32.50;68.00;;;33.49;37.40;97295.91;10303642;28;20308;-67
2023/07/11 17:54:52;;;;;;;8.98;8.13;;;32.40;68.50;;;33.36;37.06;97290.25;10298692;28;20233;-67
2023/07/11 17:59:55;;;;;;;8.77;8.00;;;32.30;69.30;;;33.19;37.53;97280.41;10301055;28;21447;-67
2023/07/11 18:04:58;;;;;;;9.30;8.52;;;32.10;69.70;;;33.05;38.41;97274.84;10288680;28;20227;-66
2023/07/11 18:10:04;;;;;;;9.18;8.38;;;31.90;70.10;;;32.85;38.78;97259.78;10304013;28;20242;-67
2023/07/11 18:15:10;;;;;;;8.43;7.82;;;31.70;71.50;;;32.63;39.24;97245.69;10307076;28;20225;-67
2023/07/11 18:20:20;;;;;;;9.77;8.77;;;31.50;72.10;;;32.33;40.26;97259.19;10299166;28;20765;-67
2023/07/11 18:25:25;;;;;;;9.82;8.93;;;31.20;72.70;;;32.13;40.94;97267.91;10299537;28;20229;-67
2023/07/11 18:30:28;;;;;;;9.00;8.07;;;31.00;75.10;;;31.96;41.02;97262.41;10298690;28;20227;-66
2023/07/11 18:35:33;;;;;;;9.23;8.52;;;30.80;74.80;;;31.59;42.46;97271.69;10302949;28;20226;-67
2023/07/11 18:40:38;;;;;;;9.80;9.00;;;30.40;77.50;;;31.35;44.09;97266.38;10305551;28;20223;-67
2023/07/11 18:45:44;;;;;;;9.32;8.60;;;30.20;79.60;;;31.12;45.00;97261.03;10297929;28;20938;-67
2023/07/11 18:50:47;;;;;;;9.88;8.88;;;30.00;81.30;;;30.94;45.58;97223.78;10367319;23;20226;-67
2023/07/11 18:55:52;;;;;;;9.52;8.73;;;29.80;83.50;;;30.82;45.87;97200.47;10308675;28;20234;-68
2023/07/11 19:00:55;;;;;;;9.20;8.43;;;29.70;83.10;;;30.69;45.58;97165.66;10305515;28;20226;-69
2023/07/11 19:05:58;;;;;;;9.90;9.10;;;29.60;83.00;;;30.55;46.32;97130.13;10307570;28;20316;-67
2023/07/11 19:11:03;;;;;;;9.70;8.90;;;29.40;83.30;;;30.40;46.33;97149.97;10310178;28;20609;-67
2023/07/11 19:16:15;;;;;;;10.07;9.20;;;29.30;83.80;;;30.30;46.19;97130.94;10308188;28;20324;-68
2023/07/11 19:21:18;;;;;;;11.40;10.40;;;29.20;82.60;;;30.22;46.92;97173.41;10313393;28;20298;-68
2023/07/11 19:26:23;;;;;;;9.73;8.88;;;29.10;84.70;;;30.09;48.38;97186.06;10311732;28;20234;-67
2023/07/11 19:31:26;;;;;;;10.43;9.52;;;29.00;86.00;;;29.97;48.35;97167.16;10317457;28;20739;-68
2023/07/11 19:36:30;;;;;;;10.32;9.35;;;29.00;85.80;;;29.86;47.86;97201.75;10313798;28;20225;-68
2023/07/11 19:41:34;;;;;;;10.48;9.43;;;28.90;85.60;;;29.83;49.47;97260.69;10305693;28;20341;-67
2023/07/11 19:46:37;;;;;;;10.30;9.30;;;28.80;87.70;;;29.89;48.95;97317.63;10309113;28;20233;-68
2023/07/11 19:51:41;;;;;;;20.23;12.88;;;28.90;87.20;;;29.28;62.35;97408.81;10315184;28;20324;-65
2023/07/11 19:56:45;;;;;;;12.60;10.40;;;28.50;99.80;;;26.92;72.91;97498.22;10308472;28;20222;-65
2023/07/11 20:01:48;;;;;;;11.38;8.90;;;26.60;99.90;;;24.82;86.07;97476.63;10303150;28;20249;-67
2023/07/11 20:06:51;;;;;;;11.30;10.32;;;24.60;99.90;;;23.38;96.83;97468.25;10310869;28;20297;-66
2023/07/11 20:11:56;;;;;;;12.48;11.27;;;23.30;99.90;;;23.12;100.00;97449.09;10309054;28;20233;-65
2023/07/11 20:16:59;;;;;;;12.68;11.43;;;22.80;99.90;;;22.83;100.00;97444.69;10311646;28;20615;-66
2023/07/11 20:22:03;;;;;;;12.23;11.13;;;22.40;99.90;;;22.57;100.00;97460.25;10316804;28;20239;-66
2023/07/11 20:27:12;;;;;;;14.30;12.77;;;22.30;99.90;;;22.63;100.00;97460.28;10316433;28;20231;-66
2023/07/11 20:32:18;;;;;;;13.73;12.52;;;22.30;99.90;;;22.57;100.00;97475.88;10315347;28;20227;-66
2023/07/11 20:37:21;;;;;;;14.45;12.95;;;22.10;99.90;;;22.59;100.00;97478.50;10318752;28;20257;-67
2023/07/11 20:42:25;;;;;;;15.00;13.43;;;22.10;99.90;;;22.68;100.00;97530.66;10317457;28;20234;-67
2023/07/11 20:47:33;;;;;;;14.55;12.85;;;22.10;99.90;;;22.62;100.00;97535.84;10310359;28;20230;-66
2023/07/11 20:52:38;;;;;;;13.18;11.93;;;22.10;99.90;;;22.48;100.00;97552.28;10317982;28;20250;-66
2023/07/11 20:57:43;;;;;;;13.40;12.10;;;22.00;99.90;;;22.43;100.00;97550.50;10313715;28;20238;-66
2023/07/11 21:02:46;;;;;;;13.77;12.52;;;22.00;99.90;;;22.27;100.00;97558.25;10306052;28;20239;-67
2023/07/11 21:07:50;;;;;;;13.68;12.38;;;21.90;99.90;;;22.45;100.00;97586.13;10314330;28;20675;-67
2023/07/11 21:12:54;;;;;;;13.35;12.15;;;21.90;99.90;;;22.45;100.00;97679.91;10309334;28;20766;-66
2023/07/11 21:17:57;;;;;;;10.27;9.27;;;22.00;99.90;;;22.36;100.00;97759.72;10313586;28;20737;-66